Time;durP1;ratioP1;P1;durP2;ratioP2;P2;SDS_P1;SDS_P2;PMS_P1;PMS_P2;Temp;Humidity;BMP_temperature;BMP_pressure;BME280_temperature;BME280_humidity;BME280_pressure;Samples;Min_cycle;Max_cycle;Signal;HPM_P1;HPM_P2
2022/01/30 00:01:27;;;;;;;;;;;;;;;6.82;73.35;101860.47;5011552;27;20910;-69
2022/01/30 00:03:52;;;;;;;;;;;;;;;6.85;72.69;101866.44;5010311;28;19904;-69
2022/01/30 00:06:17;;;;;;;;;;;;;;;6.83;72.74;101875.34;5006115;28;19908;-69
2022/01/30 00:08:42;;;;;;;;;;;;;;;6.80;73.15;101886.88;4989183;28;19911;-69
2022/01/30 00:11:19;;;;;;;;;;;;;;;6.84;72.59;101888.41;4988410;28;19988;-68
2022/01/30 00:13:45;;;;;;;;;;;;;;;6.78;72.69;101885.25;5011659;27;19919;-69
2022/01/30 00:16:11;;;;;;;;;;;;;;;6.78;72.29;101891.38;5001245;27;19908;-70
2022/01/30 00:18:48;;;;;;;;;;;;;;;6.74;72.74;101886.34;5007042;28;19908;-70
2022/01/30 00:21:34;;;;;;;;;;;;;;;6.66;72.70;101882.38;4998738;27;20034;-69
2022/01/30 00:26:30;;;;;;;;;;;;;;;6.72;72.03;101894.34;5009656;28;19904;-70
2022/01/30 00:28:55;;;;;;;;;;;;;;;6.57;72.63;101901.28;5009846;28;19985;-70
2022/01/30 00:31:21;;;;;;;;;;;;;;;6.55;72.58;101897.88;5006708;28;19912;-69
2022/01/30 00:33:47;;;;;;;;;;;;;;;6.62;72.40;101901.03;5010973;28;19914;-69
2022/01/30 00:36:12;;;;;;;;;;;;;;;6.52;72.60;101898.03;5008766;27;19904;-70
2022/01/30 00:38:37;;;;;;;;;;;;;;;6.53;72.70;101905.84;4992340;28;20921;-69
2022/01/30 00:41:02;;;;;;;;;;;;;;;6.66;72.47;101911.31;4988169;28;20839;-69
2022/01/30 00:43:28;;;;;;;;;;;;;;;6.57;72.48;101913.56;4994343;28;20480;-69
2022/01/30 00:45:53;;;;;;;;;;;;;;;6.48;72.55;101913.13;5000263;27;19915;-69
2022/01/30 00:48:18;;;;;;;;;;;;;;;6.51;72.19;101905.09;5024694;27;20016;-70
2022/01/30 00:50:43;;;;;;;;;;;;;;;6.41;72.48;101917.00;5031185;27;19956;-68
2022/01/30 00:53:08;;;;;;;;;;;;;;;6.27;72.76;101919.53;5049101;27;19990;-67
2022/01/30 00:55:34;;;;;;;;;;;;;;;6.36;72.81;101933.03;5029936;27;20019;-67
2022/01/30 00:57:59;;;;;;;;;;;;;;;6.39;72.82;101932.03;5029373;27;19971;-72
2022/01/30 01:00:25;;;;;;;;;;;;;;;6.38;72.57;101932.94;5029151;27;20178;-68
2022/01/30 01:02:50;;;;;;;;;;;;;;;6.28;72.83;101916.81;5012253;27;19917;-69
2022/01/30 01:05:15;;;;;;;;;;;;;;;6.35;72.71;101914.72;5031443;27;19911;-71
2022/01/30 01:07:44;;;;;;;;;;;;;;;6.42;72.10;101925.78;5030051;27;20008;-72
2022/01/30 01:10:30;;;;;;;;;;;;;;;6.28;72.42;101929.09;5023358;27;19907;-71
2022/01/30 01:23:37;;;;;;;;;;;;;;;6.01;72.82;101940.94;5030247;27;20065;-69
2022/01/30 01:26:03;;;;;;;;;;;;;;;6.02;73.11;101933.91;5031753;27;19999;-68
2022/01/30 01:28:28;;;;;;;;;;;;;;;6.01;73.32;101935.69;5050926;27;19907;-68
2022/01/30 01:30:53;;;;;;;;;;;;;;;5.97;73.29;101934.16;5031509;27;19914;-70
2022/01/30 01:33:19;;;;;;;;;;;;;;;6.04;72.93;101933.84;5015043;27;20362;-69
2022/01/30 01:35:44;;;;;;;;;;;;;;;5.99;73.23;101937.56;5012432;27;20778;-70
2022/01/30 01:38:12;;;;;;;;;;;;;;;6.10;72.62;101941.41;5014485;27;19997;-70
2022/01/30 01:40:40;;;;;;;;;;;;;;;6.00;72.38;101930.53;5050763;27;19922;-68
2022/01/30 01:43:06;;;;;;;;;;;;;;;5.96;73.18;101931.56;5029909;27;19918;-70
2022/01/30 01:45:35;;;;;;;;;;;;;;;6.06;72.43;101935.44;5046408;27;19920;-69
2022/01/30 01:48:07;;;;;;;;;;;;;;;6.05;72.00;101933.78;5013089;27;20086;-69
2022/01/30 01:50:39;;;;;;;;;;;;;;;5.97;72.31;101928.03;4997183;27;19911;-71
2022/01/30 01:53:10;;;;;;;;;;;;;;;5.94;72.65;101928.19;5008172;27;19927;-70
2022/01/30 01:55:38;;;;;;;;;;;;;;;5.97;72.72;101928.03;5011006;27;20040;-70
2022/01/30 01:58:04;;;;;;;;;;;;;;;5.80;72.80;101923.63;5030334;27;20330;-69
2022/01/30 02:00:29;;;;;;;;;;;;;;;5.72;73.52;101920.50;5031713;27;19952;-71
2022/01/30 02:02:55;;;;;;;;;;;;;;;5.67;73.96;101921.59;5028018;27;20155;-69
2022/01/30 02:05:22;;;;;;;;;;;;;;;5.87;73.23;101916.28;5011058;27;19921;-70
2022/01/30 02:10:20;;;;;;;;;;;;;;;5.69;73.05;101924.13;5068847;27;19907;-70
2022/01/30 02:12:50;;;;;;;;;;;;;;;5.67;73.59;101926.00;5033247;27;20436;-71
2022/01/30 02:25:58;;;;;;;;;;;;;;;5.66;74.02;101940.06;5025101;27;19951;-69
2022/01/30 02:28:25;;;;;;;;;;;;;;;5.56;74.18;101958.03;5024754;27;20725;-69
2022/01/30 02:31:08;;;;;;;;;;;;;;;5.58;73.15;101957.94;5020995;27;19908;-68
2022/01/30 02:33:34;;;;;;;;;;;;;;;5.58;73.63;101958.78;5026934;27;20685;-71
2022/01/30 02:35:59;;;;;;;;;;;;;;;5.64;72.94;101961.13;5021731;27;19914;-69
2022/01/30 02:38:24;;;;;;;;;;;;;;;5.66;73.16;101976.81;5025211;27;19907;-69
2022/01/30 02:40:52;;;;;;;;;;;;;;;5.64;72.96;101965.53;5004089;27;19980;-67
2022/01/30 02:43:22;;;;;;;;;;;;;;;5.65;72.60;101975.09;5029192;27;20181;-69
2022/01/30 02:46:00;;;;;;;;;;;;;;;5.52;73.15;101974.84;5020573;27;20313;-71
2022/01/30 02:48:33;;;;;;;;;;;;;;;5.44;73.70;101983.09;5025394;27;20400;-72
2022/01/30 02:51:10;;;;;;;;;;;;;;;5.40;73.60;101980.69;5018639;27;20123;-70
2022/01/30 02:53:40;;;;;;;;;;;;;;;5.37;74.22;101981.66;5037959;27;19939;-72
2022/01/30 02:56:05;;;;;;;;;;;;;;;5.30;74.30;101991.63;5012638;27;19903;-70
2022/01/30 02:58:31;;;;;;;;;;;;;;;5.26;74.95;101991.81;5030422;27;19908;-69
2022/01/30 03:00:56;;;;;;;;;;;;;;;5.18;75.03;101992.19;5028164;27;19996;-70
2022/01/30 03:03:21;;;;;;;;;;;;;;;5.22;75.24;102004.25;5028131;27;19912;-70
2022/01/30 03:05:46;;;;;;;;;;;;;;;5.23;75.23;101995.47;5046418;27;19907;-72
2022/01/30 03:08:12;;;;;;;;;;;;;;;5.21;74.96;101988.56;5028787;27;20309;-70
2022/01/30 03:10:37;;;;;;;;;;;;;;;5.23;75.00;101995.47;5047950;27;20316;-68
2022/01/30 03:13:02;;;;;;;;;;;;;;;5.27;75.14;101991.78;5031165;27;20040;-68
2022/01/30 03:15:27;;;;;;;;;;;;;;;5.38;74.83;101993.88;5030348;27;20341;-67
2022/01/30 03:17:52;;;;;;;;;;;;;;;5.47;74.36;101984.72;5050692;27;20404;-69
2022/01/30 03:20:18;;;;;;;;;;;;;;;5.47;73.94;101985.59;5048277;27;20334;-70
2022/01/30 03:22:43;;;;;;;;;;;;;;;5.38;74.16;101978.13;5042922;27;20556;-72
2022/01/30 03:25:08;;;;;;;;;;;;;;;5.37;74.22;101980.84;5026234;28;20158;-71
2022/01/30 03:27:33;;;;;;;;;;;;;;;5.44;74.32;101987.50;5028956;28;19903;-70
2022/01/30 03:30:04;;;;;;;;;;;;;;;5.39;74.17;101989.50;5021563;28;20001;-70
2022/01/30 03:32:30;;;;;;;;;;;;;;;5.42;74.11;101978.84;5023280;27;19929;-71
2022/01/30 03:34:55;;;;;;;;;;;;;;;5.48;73.92;101983.78;5022891;28;19916;-70
2022/01/30 03:37:20;;;;;;;;;;;;;;;5.50;73.42;101977.56;5048179;27;19920;-69
2022/01/30 03:39:45;;;;;;;;;;;;;;;5.60;73.58;101982.38;5031796;27;19907;-68
2022/01/30 03:42:10;;;;;;;;;;;;;;;5.62;73.30;101980.50;5052106;27;20862;-67
2022/01/30 03:44:36;;;;;;;;;;;;;;;5.47;74.14;101972.44;5037845;27;20862;-72
2022/01/30 03:47:01;;;;;;;;;;;;;;;5.42;74.20;101984.09;5028273;27;20786;-71
2022/01/30 03:49:26;;;;;;;;;;;;;;;5.56;74.01;101984.28;5012925;27;20702;-71
2022/01/30 03:51:51;;;;;;;;;;;;;;;5.56;73.64;101981.66;5031034;27;20729;-70
2022/01/30 03:54:17;;;;;;;;;;;;;;;5.55;74.09;101994.88;5030629;27;19959;-71
2022/01/30 03:56:42;;;;;;;;;;;;;;;5.57;73.97;101990.38;5026637;27;20227;-71
2022/01/30 03:59:07;;;;;;;;;;;;;;;5.55;73.72;102000.13;5006810;27;20670;-70
2022/01/30 04:01:32;;;;;;;;;;;;;;;5.61;73.24;101990.19;5026611;27;20722;-68
2022/01/30 04:03:58;;;;;;;;;;;;;;;5.58;73.72;102000.81;5029431;27;20877;-68
2022/01/30 04:06:23;;;;;;;;;;;;;;;5.53;74.01;101996.69;5028488;27;20718;-70
2022/01/30 04:08:49;;;;;;;;;;;;;;;5.49;73.75;102002.09;5051704;27;20925;-71
2022/01/30 04:11:14;;;;;;;;;;;;;;;5.45;73.16;101995.28;5027320;27;20048;-69
2022/01/30 04:13:39;;;;;;;;;;;;;;;5.45;73.39;101994.44;5016647;27;19931;-72
2022/01/30 04:16:04;;;;;;;;;;;;;;;5.45;73.76;101995.28;5042632;27;19911;-71
2022/01/30 04:18:30;;;;;;;;;;;;;;;5.44;73.36;102004.09;5051166;27;19976;-71
2022/01/30 04:20:55;;;;;;;;;;;;;;;5.56;73.38;102002.66;5049387;27;19915;-69
2022/01/30 04:23:20;;;;;;;;;;;;;;;5.43;74.08;102007.66;5029838;27;19915;-70
2022/01/30 04:25:45;;;;;;;;;;;;;;;5.33;74.23;102009.00;5031494;27;20039;-72
2022/01/30 04:28:11;;;;;;;;;;;;;;;5.34;73.94;102002.81;5052221;27;20012;-71
2022/01/30 04:30:36;;;;;;;;;;;;;;;5.30;74.17;102006.50;5031124;27;20015;-71
2022/01/30 04:33:01;;;;;;;;;;;;;;;5.30;74.37;102006.50;5048100;27;20674;-71
2022/01/30 04:35:29;;;;;;;;;;;;;;;5.46;73.95;102009.28;5040158;27;19907;-69
2022/01/30 04:40:58;;;;;;;;;;;;;;;5.45;74.26;102025.94;5044133;27;19908;-69
2022/01/30 05:00:06;;;;;;;;;;;;;;;5.38;74.89;102062.13;5024498;27;19906;-69
2022/01/30 05:02:47;;;;;;;;;;;;;;;5.20;75.46;102068.22;5052341;27;20545;-68
2022/01/30 05:07:57;;;;;;;;;;;;;;;5.04;75.47;102068.91;5028076;27;19923;-71
2022/01/30 05:10:22;;;;;;;;;;;;;;;4.90;75.81;102068.66;5030734;27;20370;-71
2022/01/30 05:12:52;;;;;;;;;;;;;;;4.94;76.10;102057.13;5029580;27;19919;-70
2022/01/30 05:15:19;;;;;;;;;;;;;;;4.84;75.86;102054.06;5030679;27;20165;-70
2022/01/30 05:17:44;;;;;;;;;;;;;;;4.86;76.32;102067.09;5030467;27;19968;-71
2022/01/30 05:20:09;;;;;;;;;;;;;;;4.86;76.05;102069.72;5027939;27;19908;-69
2022/01/30 05:22:35;;;;;;;;;;;;;;;4.75;76.30;102068.41;5040002;27;20012;-68
2022/01/30 05:25:00;;;;;;;;;;;;;;;4.81;76.22;102069.94;5029932;27;19907;-70
2022/01/30 05:27:26;;;;;;;;;;;;;;;4.63;76.48;102066.31;5050073;27;20705;-72
2022/01/30 05:29:51;;;;;;;;;;;;;;;4.53;77.04;102078.97;5013751;27;20233;-70
2022/01/30 05:32:16;;;;;;;;;;;;;;;4.60;76.65;102085.66;5048934;27;20391;-70
2022/01/30 05:34:42;;;;;;;;;;;;;;;4.59;76.88;102093.56;5048301;27;19914;-69
2022/01/30 05:37:08;;;;;;;;;;;;;;;4.79;77.11;102085.72;5029216;27;19927;-69
2022/01/30 05:39:33;;;;;;;;;;;;;;;4.73;76.56;102082.50;5030675;27;19908;-70
2022/01/30 05:41:59;;;;;;;;;;;;;;;4.77;77.12;102087.53;5032447;27;20260;-69
2022/01/30 05:44:38;;;;;;;;;;;;;;;4.93;76.38;102089.50;5050767;27;20187;-70
2022/01/30 05:47:03;;;;;;;;;;;;;;;4.84;76.72;102085.53;5048244;27;19923;-71
2022/01/30 05:49:29;;;;;;;;;;;;;;;4.78;76.54;102088.38;5031389;27;19917;-71
2022/01/30 05:51:54;;;;;;;;;;;;;;;4.88;76.74;102094.97;5025794;27;20020;-70
2022/01/30 05:54:19;;;;;;;;;;;;;;;4.90;77.53;102102.75;5050461;27;19949;-69
2022/01/30 05:56:44;;;;;;;;;;;;;;;5.02;76.99;102094.38;5028778;27;19916;-67
2022/01/30 05:59:10;;;;;;;;;;;;;;;5.16;75.80;102102.47;5022936;27;19904;-68
2022/01/30 06:01:35;;;;;;;;;;;;;;;5.05;76.38;102101.22;5018339;27;19922;-69
2022/01/30 06:04:00;;;;;;;;;;;;;;;5.01;76.58;102100.53;5028033;27;19911;-69
2022/01/30 06:06:25;;;;;;;;;;;;;;;4.96;76.54;102105.09;5031487;27;19911;-69
2022/01/30 06:09:01;;;;;;;;;;;;;;;5.09;76.33;102110.66;5019338;27;19911;-69
2022/01/30 06:11:26;;;;;;;;;;;;;;;5.19;75.84;102105.88;5028078;27;20219;-68
2022/01/30 06:13:51;;;;;;;;;;;;;;;5.05;76.05;102116.97;5020043;27;19991;-68
2022/01/30 06:16:16;;;;;;;;;;;;;;;5.02;76.36;102111.84;5027965;27;19907;-69
2022/01/30 06:18:43;;;;;;;;;;;;;;;4.97;76.27;102114.69;5020246;27;19968;-69
2022/01/30 06:21:08;;;;;;;;;;;;;;;4.96;75.91;102115.59;5029293;27;19944;-70
2022/01/30 06:23:33;;;;;;;;;;;;;;;4.86;76.60;102122.16;5019335;27;20008;-70
2022/01/30 06:25:58;;;;;;;;;;;;;;;4.87;76.26;102123.88;5027910;27;19931;-70
2022/01/30 06:28:24;;;;;;;;;;;;;;;4.93;76.44;102134.09;5029540;27;20065;-69
2022/01/30 06:30:49;;;;;;;;;;;;;;;5.01;75.44;102147.75;5003824;27;20017;-69
2022/01/30 06:33:14;;;;;;;;;;;;;;;4.92;75.82;102156.00;5006065;27;19928;-68
2022/01/30 06:35:39;;;;;;;;;;;;;;;4.80;76.38;102147.72;5011191;27;19907;-69
2022/01/30 06:38:04;;;;;;;;;;;;;;;4.92;75.54;102156.00;5027143;27;19918;-68
2022/01/30 06:40:30;;;;;;;;;;;;;;;4.86;75.65;102153.66;5006585;27;20915;-72
2022/01/30 06:42:55;;;;;;;;;;;;;;;4.86;75.81;102153.66;5007535;27;20774;-70
2022/01/30 06:45:20;;;;;;;;;;;;;;;4.88;74.30;102160.53;4991324;27;20306;-70
2022/01/30 06:47:46;;;;;;;;;;;;;;;4.91;74.56;102159.56;5028194;27;20214;-70
2022/01/30 06:50:11;;;;;;;;;;;;;;;4.90;74.36;102166.56;5021864;27;19908;-70
2022/01/30 06:52:36;;;;;;;;;;;;;;;4.90;74.54;102171.81;5023972;27;19923;-70
2022/01/30 06:55:02;;;;;;;;;;;;;;;4.80;74.44;102158.22;5029831;27;20338;-70
2022/01/30 06:57:27;;;;;;;;;;;;;;;4.84;74.33;102171.19;5019070;28;19908;-71
2022/01/30 06:59:52;;;;;;;;;;;;;;;4.75;74.61;102170.69;5029808;28;20012;-71
2022/01/30 07:02:17;;;;;;;;;;;;;;;4.84;74.91;102172.06;5031585;27;19915;-70
2022/01/30 07:04:42;;;;;;;;;;;;;;;4.79;74.90;102179.28;5025164;28;19979;-69
2022/01/30 07:07:08;;;;;;;;;;;;;;;4.85;74.29;102178.16;4991755;28;19908;-71
2022/01/30 07:09:33;;;;;;;;;;;;;;;4.80;74.99;102175.75;5007839;28;19991;-69
2022/01/30 07:11:58;;;;;;;;;;;;;;;4.88;74.62;102178.03;5010452;28;19994;-68
2022/01/30 07:14:23;;;;;;;;;;;;;;;4.77;74.61;102176.72;5011958;27;20113;-68
2022/01/30 07:16:48;;;;;;;;;;;;;;;4.77;74.60;102187.19;5040729;27;20610;-67
2022/01/30 07:19:14;;;;;;;;;;;;;;;4.84;74.79;102181.69;5034143;27;20794;-67
2022/01/30 07:21:39;;;;;;;;;;;;;;;4.92;74.63;102184.84;5011168;27;21883;-68
2022/01/30 07:24:04;;;;;;;;;;;;;;;4.95;74.25;102179.47;5007867;27;20689;-70
2022/01/30 07:26:32;;;;;;;;;;;;;;;4.97;73.89;102180.28;5029789;27;20908;-70
2022/01/30 07:28:57;;;;;;;;;;;;;;;5.02;73.83;102175.69;5025437;27;19908;-69
2022/01/30 07:31:22;;;;;;;;;;;;;;;4.99;73.83;102187.16;5028509;27;19907;-69
2022/01/30 07:33:47;;;;;;;;;;;;;;;5.05;73.97;102178.19;5006086;27;20041;-69
2022/01/30 07:36:12;;;;;;;;;;;;;;;4.90;74.21;102181.44;5030777;27;19923;-66
2022/01/30 07:38:38;;;;;;;;;;;;;;;4.90;74.33;102184.06;5003712;27;19945;-68
2022/01/30 07:41:03;;;;;;;;;;;;;;;5.00;74.41;102188.00;5032834;27;19918;-69
2022/01/30 07:43:28;;;;;;;;;;;;;;;5.06;72.94;102187.78;5011336;27;20507;-69
2022/01/30 07:45:54;;;;;;;;;;;;;;;4.94;74.03;102193.53;5008492;27;20933;-69
2022/01/30 07:48:19;;;;;;;;;;;;;;;4.92;73.66;102185.72;5030940;27;19904;-71
2022/01/30 07:50:44;;;;;;;;;;;;;;;4.95;74.03;102192.59;5043946;27;19952;-71
2022/01/30 07:53:09;;;;;;;;;;;;;;;5.00;73.67;102195.88;5047788;27;19923;-70
2022/01/30 07:55:35;;;;;;;;;;;;;;;4.98;73.82;102203.81;5040726;27;19950;-67
2022/01/30 07:58:00;;;;;;;;;;;;;;;5.02;73.77;102207.19;5024453;27;19907;-68
2022/01/30 08:00:25;;;;;;;;;;;;;;;5.06;73.98;102208.75;5050982;27;20829;-70
2022/01/30 08:02:50;;;;;;;;;;;;;;;5.01;73.37;102205.47;5036319;27;20008;-68
2022/01/30 08:05:16;;;;;;;;;;;;;;;5.06;73.18;102200.00;5052093;27;19914;-69
2022/01/30 08:07:41;;;;;;;;;;;;;;;5.90;85.60;102210.38;5030642;27;19915;-71
2022/01/30 08:10:06;;;;;;;;;;;;;;;6.59;78.75;102211.56;4999469;27;19912;-70
2022/01/30 08:12:31;;;;;;;;;;;;;;;6.90;69.28;102223.19;5009495;27;19938;-71
2022/01/30 08:14:57;;;;;;;;;;;;;;;6.43;68.26;102220.19;5032966;27;19912;-68
2022/01/30 08:17:23;;;;;;;;;;;;;;;6.18;68.61;102223.94;5041337;27;20012;-70
2022/01/30 08:19:49;;;;;;;;;;;;;;;5.75;70.04;102218.00;5032056;27;19918;-71
2022/01/30 08:22:14;;;;;;;;;;;;;;;5.67;70.72;102222.75;5012633;27;19908;-71
2022/01/30 08:24:39;;;;;;;;;;;;;;;5.54;70.96;102218.97;5027157;27;19960;-69
2022/01/30 08:27:05;;;;;;;;;;;;;;;5.56;71.35;102232.88;5030357;27;20101;-68
2022/01/30 08:29:30;;;;;;;;;;;;;;;5.45;71.60;102228.94;5031171;27;19907;-71
2022/01/30 08:31:56;;;;;;;;;;;;;;;5.44;72.09;102235.13;5034093;27;20020;-70
2022/01/30 08:34:21;;;;;;;;;;;;;;;5.39;72.00;102237.09;5015576;27;20190;-71
2022/01/30 08:36:46;;;;;;;;;;;;;;;5.33;72.38;102242.63;5015328;27;20325;-69
2022/01/30 08:39:12;;;;;;;;;;;;;;;5.36;72.17;102258.22;5017669;27;20438;-69
2022/01/30 08:41:37;;;;;;;;;;;;;;;5.33;72.41;102253.13;5032339;27;19908;-69
2022/01/30 08:44:02;;;;;;;;;;;;;;;5.46;71.88;102254.28;5034301;27;19918;-69
2022/01/30 08:46:27;;;;;;;;;;;;;;;5.44;71.44;102265.75;5049407;27;19927;-68
2022/01/30 08:48:53;;;;;;;;;;;;;;;5.45;71.37;102257.81;5031196;27;20034;-68
2022/01/30 08:51:18;;;;;;;;;;;;;;;5.66;71.30;102255.19;5049800;27;20701;-70
2022/01/30 08:53:43;;;;;;;;;;;;;;;5.96;70.62;102260.84;5004985;27;20683;-69
2022/01/30 08:56:08;;;;;;;;;;;;;;;6.00;70.25;102259.81;5044618;27;19911;-71
2022/01/30 08:58:33;;;;;;;;;;;;;;;6.28;69.02;102252.44;5045058;27;20965;-71
2022/01/30 09:00:59;;;;;;;;;;;;;;;6.33;68.36;102266.22;5038651;27;20828;-72
2022/01/30 09:03:24;;;;;;;;;;;;;;;6.34;68.26;102267.94;5033802;27;20012;-71
2022/01/30 09:05:49;;;;;;;;;;;;;;;6.04;69.32;102265.78;5032173;27;20444;-72
2022/01/30 09:08:14;;;;;;;;;;;;;;;6.06;69.31;102266.56;5052026;27;20301;-70
2022/01/30 09:10:41;;;;;;;;;;;;;;;5.87;69.29;102266.53;5052249;27;20805;-69
2022/01/30 09:13:06;;;;;;;;;;;;;;;5.90;69.79;102263.75;5033597;27;19927;-69
2022/01/30 09:15:39;;;;;;;;;;;;;;;6.00;68.39;102270.31;5050912;27;19944;-70
2022/01/30 09:18:08;;;;;;;;;;;;;;;6.02;68.80;102265.00;5006855;27;19907;-70
2022/01/30 09:20:34;;;;;;;;;;;;;;;5.88;69.17;102259.47;5035959;27;20979;-68
2022/01/30 09:22:59;;;;;;;;;;;;;;;6.01;69.04;102276.44;5033447;27;19907;-70
2022/01/30 09:25:24;;;;;;;;;;;;;;;6.06;69.20;102266.56;5029130;27;20008;-68
2022/01/30 09:27:49;;;;;;;;;;;;;;;6.25;68.58;102268.38;5047882;27;19904;-70
2022/01/30 09:30:15;;;;;;;;;;;;;;;6.41;67.46;102265.88;5051587;27;20013;-70
2022/01/30 09:32:40;;;;;;;;;;;;;;;6.35;67.32;102267.84;5028846;27;19927;-70
2022/01/30 09:35:05;;;;;;;;;;;;;;;6.44;67.02;102260.47;5045466;27;19907;-68
2022/01/30 09:37:31;;;;;;;;;;;;;;;6.80;66.49;102260.47;5029268;27;20350;-71
2022/01/30 09:39:56;;;;;;;;;;;;;;;7.80;63.28;102246.66;5045668;27;19907;-70
2022/01/30 09:42:24;;;;;;;;;;;;;;;7.59;62.64;102248.63;5047787;27;19911;-68
2022/01/30 09:44:49;;;;;;;;;;;;;;;7.18;64.33;102244.56;5030611;27;19936;-69
2022/01/30 09:47:16;;;;;;;;;;;;;;;7.40;64.43;102235.56;5038152;27;20471;-69
2022/01/30 09:49:43;;;;;;;;;;;;;;;7.29;64.19;102227.34;5033286;27;20007;-69
2022/01/30 09:52:09;;;;;;;;;;;;;;;7.16;64.81;102224.50;5051625;27;20871;-67
2022/01/30 09:54:34;;;;;;;;;;;;;;;7.27;64.58;102229.22;5033818;27;20016;-68
2022/01/30 09:56:59;;;;;;;;;;;;;;;7.21;64.07;102228.59;5035748;27;20410;-69
2022/01/30 09:59:25;;;;;;;;;;;;;;;6.96;64.32;102226.34;5054985;27;19911;-69
2022/01/30 10:01:50;;;;;;;;;;;;;;;7.22;64.01;102219.78;5034642;27;19907;-69
2022/01/30 10:04:15;;;;;;;;;;;;;;;7.38;62.85;102234.78;5050277;27;19971;-70
2022/01/30 10:06:49;;;;;;;;;;;;;;;7.58;62.65;102239.03;5035348;27;19911;-68
2022/01/30 10:09:25;;;;;;;;;;;;;;;7.64;63.16;102237.84;5047135;27;19911;-68
2022/01/30 10:12:00;;;;;;;;;;;;;;;7.82;61.61;102244.78;5034393;27;19911;-69
2022/01/30 10:14:25;;;;;;;;;;;;;;;7.59;62.66;102239.88;5038167;27;20162;-68
2022/01/30 10:16:51;;;;;;;;;;;;;;;7.55;62.25;102245.28;5047763;27;20869;-69
2022/01/30 10:19:20;;;;;;;;;;;;;;;7.41;63.18;102239.91;5040535;27;19983;-68
2022/01/30 10:21:46;;;;;;;;;;;;;;;7.64;62.43;102249.25;5032343;27;20268;-70
2022/01/30 10:24:24;;;;;;;;;;;;;;;8.16;65.30;102248.22;5022305;27;20353;-69
2022/01/30 10:26:50;;;;;;;;;;;;;;;9.01;61.41;102255.84;5032798;27;20807;-72
2022/01/30 10:29:19;;;;;;;;;;;;;;;9.47;62.82;102247.84;5023884;27;19911;-73
2022/01/30 10:31:56;;;;;;;;;;;;;;;10.44;57.06;102254.25;5029803;27;19915;-69
2022/01/30 10:34:21;;;;;;;;;;;;;;;10.13;54.72;102257.00;5049346;27;20713;-69
2022/01/30 10:36:47;;;;;;;;;;;;;;;10.86;53.14;102251.53;5020791;27;20015;-70
2022/01/30 10:39:16;;;;;;;;;;;;;;;11.28;51.44;102242.53;5031228;27;19930;-69
2022/01/30 10:41:45;;;;;;;;;;;;;;;12.41;48.32;102260.34;5030642;27;19907;-70
2022/01/30 10:44:10;;;;;;;;;;;;;;;12.14;48.11;102243.66;5049783;27;19914;-68
2022/01/30 10:46:39;;;;;;;;;;;;;;;12.50;46.40;102247.22;5046590;27;20305;-69
2022/01/30 10:49:21;;;;;;;;;;;;;;;13.20;44.53;102252.72;5063820;27;19888;-69
2022/01/30 10:51:56;;;;;;;;;;;;;;;13.51;43.44;102250.41;5044243;27;20028;-70
2022/01/30 10:54:21;;;;;;;;;;;;;;;13.79;42.04;102242.91;5028575;27;20375;-68
2022/01/30 10:56:46;;;;;;;;;;;;;;;14.06;41.41;102242.56;5048018;27;19982;-68
2022/01/30 10:59:15;;;;;;;;;;;;;;;13.53;41.62;102240.47;5032390;27;19928;-68
2022/01/30 11:01:44;;;;;;;;;;;;;;;13.37;43.21;102236.34;5029171;27;20007;-69
2022/01/30 11:04:25;;;;;;;;;;;;;;;13.63;43.33;102235.28;5029630;27;20149;-68
2022/01/30 11:06:50;;;;;;;;;;;;;;;13.78;42.34;102235.91;5029958;27;19918;-69
2022/01/30 11:09:21;;;;;;;;;;;;;;;14.24;42.11;102243.72;5028108;27;19907;-70
2022/01/30 11:11:52;;;;;;;;;;;;;;;14.25;42.07;102229.41;5029476;28;19980;-67
2022/01/30 11:14:20;;;;;;;;;;;;;;;13.54;41.29;102226.22;5018385;27;19923;-68
2022/01/30 11:16:58;;;;;;;;;;;;;;;13.49;41.23;102231.06;5009532;27;19911;-69
2022/01/30 11:19:23;;;;;;;;;;;;;;;12.94;41.56;102236.09;5031084;27;20314;-69
2022/01/30 11:21:49;;;;;;;;;;;;;;;13.54;40.54;102232.38;5019596;27;20084;-68
2022/01/30 11:24:14;;;;;;;;;;;;;;;13.05;41.50;102231.66;5028163;27;19911;-68
2022/01/30 11:26:40;;;;;;;;;;;;;;;12.78;43.03;102236.41;5007126;28;19968;-69
2022/01/30 11:29:11;;;;;;;;;;;;;;;11.99;43.49;102229.66;5040961;27;19914;-68
2022/01/30 11:31:37;;;;;;;;;;;;;;;11.12;45.97;102218.00;5029169;27;19915;-67
2022/01/30 11:34:02;;;;;;;;;;;;;;;10.69;45.73;102242.03;5030904;27;20667;-71
2022/01/30 11:36:27;;;;;;;;;;;;;;;10.34;46.89;102224.00;5030090;27;20532;-69
2022/01/30 11:38:52;;;;;;;;;;;;;;;10.41;45.91;102236.75;5030007;27;19899;-68
2022/01/30 11:41:18;;;;;;;;;;;;;;;9.72;46.47;102231.34;5026155;27;19914;-68
2022/01/30 11:44:02;;;;;;;;;;;;;;;10.90;44.78;102229.19;5045308;27;19903;-68
2022/01/30 11:46:27;;;;;;;;;;;;;;;11.78;43.46;102216.09;5047018;27;20020;-68
2022/01/30 11:49:11;;;;;;;;;;;;;;;13.29;40.11;102227.25;5027599;27;19907;-68
2022/01/30 11:51:49;;;;;;;;;;;;;;;14.01;38.02;102221.59;5018599;27;19981;-68
2022/01/30 11:54:33;;;;;;;;;;;;;;;13.53;38.01;102205.91;5008226;28;20020;-68
2022/01/30 11:56:59;;;;;;;;;;;;;;;12.44;38.37;102217.66;5007390;28;20368;-68
2022/01/30 11:59:50;;;;;;;;;;;;;;;11.37;40.83;102216.34;5006782;28;20126;-68
2022/01/30 12:02:22;;;;;;;;;;;;;;;11.22;40.89;102228.84;5024940;27;19908;-69
2022/01/30 12:04:56;;;;;;;;;;;;;;;10.53;43.33;102227.16;5012538;27;19914;-68
2022/01/30 12:07:40;;;;;;;;;;;;;;;10.26;44.37;102227.97;5028618;27;20319;-67
2022/01/30 12:10:21;;;;;;;;;;;;;;;9.82;46.30;102209.63;5010226;27;19908;-69
2022/01/30 12:12:50;;;;;;;;;;;;;;;9.12;47.31;102213.81;5042229;27;19934;-68
2022/01/30 12:15:34;;;;;;;;;;;;;;;8.93;49.18;102206.97;5026578;27;19915;-69
2022/01/30 12:17:59;;;;;;;;;;;;;;;8.91;49.64;102214.16;5038038;27;19918;-68
2022/01/30 12:20:25;;;;;;;;;;;;;;;8.53;49.87;102213.72;5013522;27;19903;-70
2022/01/30 12:22:50;;;;;;;;;;;;;;;8.77;49.86;102211.44;5046922;27;19911;-69
2022/01/30 12:25:19;;;;;;;;;;;;;;;8.73;50.31;102207.31;5031216;27;20012;-67
2022/01/30 12:27:48;;;;;;;;;;;;;;;8.66;51.49;102217.34;5048859;27;19952;-68
2022/01/30 12:30:34;;;;;;;;;;;;;;;8.58;50.60;102212.50;5050447;27;20070;-70
2022/01/30 12:32:59;;;;;;;;;;;;;;;8.50;49.89;102205.97;5036418;27;19927;-68
2022/01/30 12:35:24;;;;;;;;;;;;;;;8.35;49.75;102210.31;5034839;27;19914;-71
2022/01/30 12:37:49;;;;;;;;;;;;;;;8.28;50.61;102209.78;5010254;27;20296;-69
2022/01/30 12:40:16;;;;;;;;;;;;;;;8.28;50.30;102204.53;5033005;27;20012;-69
2022/01/30 12:42:41;;;;;;;;;;;;;;;8.32;50.88;102213.09;5037470;27;20367;-70
2022/01/30 12:45:07;;;;;;;;;;;;;;;8.66;50.57;102208.56;4996466;27;20809;-68
2022/01/30 12:47:46;;;;;;;;;;;;;;;9.70;49.37;102200.66;5026411;27;19907;-70
2022/01/30 12:50:12;;;;;;;;;;;;;;;10.28;45.60;102202.28;5030184;27;19959;-68
2022/01/30 12:52:37;;;;;;;;;;;;;;;10.58;44.97;102195.97;5031404;27;19931;-68
2022/01/30 12:55:09;;;;;;;;;;;;;;;9.85;45.58;102191.78;5004287;27;20276;-68
2022/01/30 12:57:34;;;;;;;;;;;;;;;10.82;43.20;102195.28;5014148;27;20693;-68
2022/01/30 12:59:59;;;;;;;;;;;;;;;11.12;41.51;102184.41;5016543;27;19904;-67
2022/01/30 13:02:26;;;;;;;;;;;;;;;12.31;40.27;102194.66;5013716;27;19923;-69
2022/01/30 13:05:04;;;;;;;;;;;;;;;13.40;38.18;102196.22;5038264;27;20365;-68
2022/01/30 13:07:29;;;;;;;;;;;;;;;14.17;36.66;102193.75;5027940;27;19916;-68
2022/01/30 13:10:11;;;;;;;;;;;;;;;13.31;37.58;102190.75;5028396;27;20553;-66
2022/01/30 13:12:36;;;;;;;;;;;;;;;12.35;39.18;102193.47;5013423;27;20828;-68
2022/01/30 13:15:06;;;;;;;;;;;;;;;12.38;39.05;102192.41;5030436;27;19981;-68
2022/01/30 13:17:31;;;;;;;;;;;;;;;11.34;40.65;102206.81;5033438;27;19941;-68
2022/01/30 13:19:56;;;;;;;;;;;;;;;10.41;42.59;102196.22;5035453;27;20712;-68
2022/01/30 13:22:34;;;;;;;;;;;;;;;10.08;43.33;102192.09;5043144;27;20429;-68
2022/01/30 13:24:59;;;;;;;;;;;;;;;9.72;44.41;102190.84;5019942;27;20024;-67
2022/01/30 13:27:24;;;;;;;;;;;;;;;9.36;44.21;102186.88;5014899;27;19918;-68
2022/01/30 13:29:53;;;;;;;;;;;;;;;9.02;45.08;102191.53;5036908;27;20168;-68
2022/01/30 13:32:18;;;;;;;;;;;;;;;8.58;45.81;102183.47;5034103;27;19918;-67
2022/01/30 13:34:44;;;;;;;;;;;;;;;8.65;45.90;102183.16;5020294;27;19907;-69